sensor_id;sensor_type;location;lat;lon;timestamp;pressure;altitude;pressure_sealevel;temperature;humidity
79118;BME280;68523;51.336;-0.846;2024-02-23T00:00:00;97695.0;;;3.05;94.8
79118;BME280;68523;51.336;-0.846;2024-02-23T00:03:00;97685.0;;;3.04;95.0
79118;BME280;68523;51.336;-0.846;2024-02-23T00:06:00;97685.0;;;3.03;95.0
79118;BME280;68523;51.336;-0.846;2024-02-23T00:09:00;97685.0;;;3.03;95.2
79118;BME280;68523;51.336;-0.846;2024-02-23T00:12:00;97685.0;;;3.04;95.0
79118;BME280;68523;51.336;-0.846;2024-02-23T00:15:00;97685.0;;;3.06;95.1
79118;BME280;68523;51.336;-0.846;2024-02-23T00:18:00;97675.0;;;3.19;94.5
79118;BME280;68523;51.336;-0.846;2024-02-23T00:21:00;97665.0;;;3.06;95.0
79118;BME280;68523;51.336;-0.846;2024-02-23T00:24:00;97655.0;;;3.16;94.7
79118;BME280;68523;51.336;-0.846;2024-02-23T00:27:00;97645.0;;;3.19;94.7
79118;BME280;68523;51.336;-0.846;2024-02-23T00:30:00;97645.0;;;3.13;95.1
79118;BME280;68523;51.336;-0.846;2024-02-23T00:33:00;97645.0;;;3.08;95.2
79118;BME280;68523;51.336;-0.846;2024-02-23T00:36:01;97645.0;;;3.08;95.5
79118;BME280;68523;51.336;-0.846;2024-02-23T00:39:00;97635.0;;;3.12;95.5
79118;BME280;68523;51.336;-0.846;2024-02-23T00:42:00;97625.0;;;3.22;95.1
79118;BME280;68523;51.336;-0.846;2024-02-23T00:45:00;97625.0;;;3.11;95.6
79118;BME280;68523;51.336;-0.846;2024-02-23T00:48:00;97625.0;;;3.10;95.9
79118;BME280;68523;51.336;-0.846;2024-02-23T00:51:01;97615.0;;;3.08;96.0
79118;BME280;68523;51.336;-0.846;2024-02-23T00:54:00;97615.0;;;3.16;96.2
79118;BME280;68523;51.336;-0.846;2024-02-23T00:57:00;97615.0;;;3.26;95.9
79118;BME280;68523;51.336;-0.846;2024-02-23T01:00:00;97615.0;;;3.41;95.7
79118;BME280;68523;51.336;-0.846;2024-02-23T01:03:00;97615.0;;;3.41;95.7
79118;BME280;68523;51.336;-0.846;2024-02-23T01:06:00;97605.0;;;3.63;95.2
79118;BME280;68523;51.336;-0.846;2024-02-23T01:09:00;97595.0;;;3.55;95.5
79118;BME280;68523;51.336;-0.846;2024-02-23T01:12:01;97585.0;;;3.46;95.8
79118;BME280;68523;51.336;-0.846;2024-02-23T01:15:00;97575.0;;;3.53;95.8
79118;BME280;68523;51.336;-0.846;2024-02-23T01:18:00;97565.0;;;3.45;96.2
79118;BME280;68523;51.336;-0.846;2024-02-23T01:21:00;97575.0;;;3.54;96.0
79118;BME280;68523;51.336;-0.846;2024-02-23T01:24:00;97565.0;;;3.55;95.7
79118;BME280;68523;51.336;-0.846;2024-02-23T01:27:00;97565.0;;;3.45;96.3
79118;BME280;68523;51.336;-0.846;2024-02-23T01:30:00;97565.0;;;3.49;96.3
79118;BME280;68523;51.336;-0.846;2024-02-23T01:33:00;97565.0;;;3.63;95.9
79118;BME280;68523;51.336;-0.846;2024-02-23T01:36:00;97555.0;;;3.57;96.0
79118;BME280;68523;51.336;-0.846;2024-02-23T01:39:00;97545.0;;;3.52;96.1
79118;BME280;68523;51.336;-0.846;2024-02-23T01:42:00;97545.0;;;3.58;95.9
79118;BME280;68523;51.336;-0.846;2024-02-23T01:45:00;97545.0;;;3.54;95.7
79118;BME280;68523;51.336;-0.846;2024-02-23T01:48:00;97535.0;;;3.61;95.6
79118;BME280;68523;51.336;-0.846;2024-02-23T01:51:00;97535.0;;;3.56;95.7
79118;BME280;68523;51.336;-0.846;2024-02-23T01:54:00;97535.0;;;3.32;96.5
79118;BME280;68523;51.336;-0.846;2024-02-23T01:57:01;97535.0;;;3.30;96.7
79118;BME280;68523;51.336;-0.846;2024-02-23T02:00:01;97535.0;;;3.36;96.8
79118;BME280;68523;51.336;-0.846;2024-02-23T02:03:00;97525.0;;;3.49;96.8
79118;BME280;68523;51.336;-0.846;2024-02-23T02:06:00;97535.0;;;3.62;96.4
79118;BME280;68523;51.336;-0.846;2024-02-23T02:09:01;97525.0;;;3.71;96.3
79118;BME280;68523;51.336;-0.846;2024-02-23T02:12:00;97515.0;;;3.65;97.0
79118;BME280;68523;51.336;-0.846;2024-02-23T02:15:01;97505.0;;;3.74;96.7
79118;BME280;68523;51.336;-0.846;2024-02-23T02:18:00;97515.0;;;3.88;96.4
79118;BME280;68523;51.336;-0.846;2024-02-23T02:21:00;97505.0;;;3.93;96.3
79118;BME280;68523;51.336;-0.846;2024-02-23T02:24:00;97495.0;;;4.01;96.3
79118;BME280;68523;51.336;-0.846;2024-02-23T02:27:00;97485.0;;;3.93;97.0
79118;BME280;68523;51.336;-0.846;2024-02-23T02:30:00;97485.0;;;4.04;96.4
79118;BME280;68523;51.336;-0.846;2024-02-23T02:33:00;97485.0;;;4.00;97.0
79118;BME280;68523;51.336;-0.846;2024-02-23T02:36:00;97475.0;;;4.01;97.3
79118;BME280;68523;51.336;-0.846;2024-02-23T02:39:00;97475.0;;;4.04;97.2
79118;BME280;68523;51.336;-0.846;2024-02-23T02:42:00;97475.0;;;4.09;97.3
79118;BME280;68523;51.336;-0.846;2024-02-23T02:45:00;97465.0;;;4.12;97.1
79118;BME280;68523;51.336;-0.846;2024-02-23T02:48:01;97465.0;;;4.01;97.3
79118;BME280;68523;51.336;-0.846;2024-02-23T02:51:00;97465.0;;;4.00;97.2
79118;BME280;68523;51.336;-0.846;2024-02-23T02:54:00;97465.0;;;4.02;97.3
79118;BME280;68523;51.336;-0.846;2024-02-23T02:57:00;97455.0;;;4.04;97.5
79118;BME280;68523;51.336;-0.846;2024-02-23T03:00:00;97445.0;;;4.04;97.6
79118;BME280;68523;51.336;-0.846;2024-02-23T03:03:00;97435.0;;;4.08;97.7
79118;BME280;68523;51.336;-0.846;2024-02-23T03:06:00;97435.0;;;4.19;97.2
79118;BME280;68523;51.336;-0.846;2024-02-23T03:09:00;97435.0;;;4.26;97.3
79118;BME280;68523;51.336;-0.846;2024-02-23T03:12:00;97425.0;;;4.24;97.5
79118;BME280;68523;51.336;-0.846;2024-02-23T03:15:00;97425.0;;;4.33;97.3
79118;BME280;68523;51.336;-0.846;2024-02-23T03:18:00;97425.0;;;4.43;96.8
79118;BME280;68523;51.336;-0.846;2024-02-23T03:21:00;97425.0;;;4.64;95.9
79118;BME280;68523;51.336;-0.846;2024-02-23T03:24:00;97425.0;;;4.86;94.7
79118;BME280;68523;51.336;-0.846;2024-02-23T03:27:00;97435.0;;;4.91;94.2
79118;BME280;68523;51.336;-0.846;2024-02-23T03:30:00;97445.0;;;4.90;94.5
79118;BME280;68523;51.336;-0.846;2024-02-23T03:33:00;97435.0;;;5.02;94.0
79118;BME280;68523;51.336;-0.846;2024-02-23T03:36:00;97435.0;;;5.06;94.0
79118;BME280;68523;51.336;-0.846;2024-02-23T03:39:00;97435.0;;;5.04;94.0
79118;BME280;68523;51.336;-0.846;2024-02-23T03:42:00;97435.0;;;5.07;93.4
79118;BME280;68523;51.336;-0.846;2024-02-23T03:45:00;97445.0;;;5.12;93.0
79118;BME280;68523;51.336;-0.846;2024-02-23T03:48:01;97455.0;;;5.06;93.3
79118;BME280;68523;51.336;-0.846;2024-02-23T03:51:00;97455.0;;;5.17;92.4
79118;BME280;68523;51.336;-0.846;2024-02-23T03:54:00;97455.0;;;5.11;92.8
79118;BME280;68523;51.336;-0.846;2024-02-23T03:57:00;97455.0;;;5.15;92.7
79118;BME280;68523;51.336;-0.846;2024-02-23T04:00:00;97455.0;;;5.16;92.7
79118;BME280;68523;51.336;-0.846;2024-02-23T04:03:00;97455.0;;;5.21;91.5
79118;BME280;68523;51.336;-0.846;2024-02-23T04:06:00;97465.0;;;5.22;92.0
79118;BME280;68523;51.336;-0.846;2024-02-23T04:09:00;97455.0;;;5.16;92.0
79118;BME280;68523;51.336;-0.846;2024-02-23T04:12:00;97455.0;;;5.18;91.5
79118;BME280;68523;51.336;-0.846;2024-02-23T04:15:00;97455.0;;;5.06;92.3
79118;BME280;68523;51.336;-0.846;2024-02-23T04:18:00;97465.0;;;4.99;92.2
79118;BME280;68523;51.336;-0.846;2024-02-23T04:21:00;97455.0;;;4.90;92.7
79118;BME280;68523;51.336;-0.846;2024-02-23T04:24:00;97465.0;;;4.81;92.8
79118;BME280;68523;51.336;-0.846;2024-02-23T04:27:00;97465.0;;;4.76;92.9
79118;BME280;68523;51.336;-0.846;2024-02-23T04:30:00;97465.0;;;4.64;93.0
79118;BME280;68523;51.336;-0.846;2024-02-23T04:33:00;97475.0;;;4.53;93.4
79118;BME280;68523;51.336;-0.846;2024-02-23T04:36:00;97475.0;;;4.49;93.4
79118;BME280;68523;51.336;-0.846;2024-02-23T04:39:00;97475.0;;;4.48;93.3
79118;BME280;68523;51.336;-0.846;2024-02-23T04:42:00;97485.0;;;4.39;93.6
79118;BME280;68523;51.336;-0.846;2024-02-23T04:45:00;97495.0;;;4.35;93.7
79118;BME280;68523;51.336;-0.846;2024-02-23T04:48:00;97505.0;;;4.29;93.9
79118;BME280;68523;51.336;-0.846;2024-02-23T04:51:00;97505.0;;;4.24;94.0
79118;BME280;68523;51.336;-0.846;2024-02-23T04:54:00;97505.0;;;4.19;94.2
79118;BME280;68523;51.336;-0.846;2024-02-23T04:57:00;97505.0;;;4.12;94.4
79118;BME280;68523;51.336;-0.846;2024-02-23T05:00:00;97505.0;;;4.08;94.6
79118;BME280;68523;51.336;-0.846;2024-02-23T05:03:00;97515.0;;;4.16;94.2
79118;BME280;68523;51.336;-0.846;2024-02-23T05:06:00;97505.0;;;4.17;94.3
79118;BME280;68523;51.336;-0.846;2024-02-23T05:09:00;97515.0;;;4.14;94.6
79118;BME280;68523;51.336;-0.846;2024-02-23T05:12:00;97505.0;;;4.23;94.4
79118;BME280;68523;51.336;-0.846;2024-02-23T05:15:00;97505.0;;;4.16;94.7
79118;BME280;68523;51.336;-0.846;2024-02-23T05:18:00;97505.0;;;4.22;94.5
79118;BME280;68523;51.336;-0.846;2024-02-23T05:21:00;97505.0;;;4.14;94.8
79118;BME280;68523;51.336;-0.846;2024-02-23T05:24:00;97505.0;;;4.02;95.2
79118;BME280;68523;51.336;-0.846;2024-02-23T05:27:00;97515.0;;;4.06;95.1
79118;BME280;68523;51.336;-0.846;2024-02-23T05:30:01;97515.0;;;4.04;95.2
79118;BME280;68523;51.336;-0.846;2024-02-23T05:33:00;97515.0;;;4.01;95.3
79118;BME280;68523;51.336;-0.846;2024-02-23T05:36:00;97505.0;;;3.99;95.4
79118;BME280;68523;51.336;-0.846;2024-02-23T05:39:00;97515.0;;;3.95;95.6
79118;BME280;68523;51.336;-0.846;2024-02-23T05:42:00;97515.0;;;4.01;95.2
79118;BME280;68523;51.336;-0.846;2024-02-23T05:45:01;97525.0;;;3.94;95.3
79118;BME280;68523;51.336;-0.846;2024-02-23T05:48:00;97535.0;;;4.01;95.0
79118;BME280;68523;51.336;-0.846;2024-02-23T05:51:00;97525.0;;;4.00;95.0
79118;BME280;68523;51.336;-0.846;2024-02-23T05:54:00;97525.0;;;3.95;95.2
79118;BME280;68523;51.336;-0.846;2024-02-23T05:57:00;97525.0;;;3.91;95.4
79118;BME280;68523;51.336;-0.846;2024-02-23T06:00:01;97525.0;;;3.87;95.5
79118;BME280;68523;51.336;-0.846;2024-02-23T06:03:00;97535.0;;;3.89;95.5
79118;BME280;68523;51.336;-0.846;2024-02-23T06:06:00;97525.0;;;3.90;95.4
79118;BME280;68523;51.336;-0.846;2024-02-23T06:09:00;97535.0;;;3.83;95.6
79118;BME280;68523;51.336;-0.846;2024-02-23T06:12:00;97525.0;;;3.80;95.6
79118;BME280;68523;51.336;-0.846;2024-02-23T06:15:00;97535.0;;;3.87;95.5
79118;BME280;68523;51.336;-0.846;2024-02-23T06:18:00;97535.0;;;3.86;95.4
79118;BME280;68523;51.336;-0.846;2024-02-23T06:21:00;97535.0;;;3.91;95.2
79118;BME280;68523;51.336;-0.846;2024-02-23T06:24:00;97535.0;;;3.93;95.2
79118;BME280;68523;51.336;-0.846;2024-02-23T06:27:00;97545.0;;;3.84;95.4
79118;BME280;68523;51.336;-0.846;2024-02-23T06:30:00;97545.0;;;3.80;95.7
79118;BME280;68523;51.336;-0.846;2024-02-23T06:33:00;97545.0;;;3.73;96.0
79118;BME280;68523;51.336;-0.846;2024-02-23T06:36:00;97545.0;;;3.78;95.7
79118;BME280;68523;51.336;-0.846;2024-02-23T06:39:00;97555.0;;;3.78;95.9
79118;BME280;68523;51.336;-0.846;2024-02-23T06:42:00;97555.0;;;3.79;95.9
79118;BME280;68523;51.336;-0.846;2024-02-23T06:45:00;97555.0;;;3.73;96.0
79118;BME280;68523;51.336;-0.846;2024-02-23T06:48:00;97565.0;;;3.72;96.2
79118;BME280;68523;51.336;-0.846;2024-02-23T06:51:00;97575.0;;;3.67;96.2
79118;BME280;68523;51.336;-0.846;2024-02-23T06:54:00;97575.0;;;3.70;96.2
79118;BME280;68523;51.336;-0.846;2024-02-23T06:57:00;97575.0;;;3.61;96.3
79118;BME280;68523;51.336;-0.846;2024-02-23T07:00:00;97585.0;;;3.65;96.4
79118;BME280;68523;51.336;-0.846;2024-02-23T07:03:00;97585.0;;;3.60;96.5
79118;BME280;68523;51.336;-0.846;2024-02-23T07:06:00;97595.0;;;3.68;96.0
79118;BME280;68523;51.336;-0.846;2024-02-23T07:09:00;97585.0;;;3.63;96.1
79118;BME280;68523;51.336;-0.846;2024-02-23T07:12:00;97585.0;;;3.65;96.0
79118;BME280;68523;51.336;-0.846;2024-02-23T07:15:00;97585.0;;;3.58;96.2
79118;BME280;68523;51.336;-0.846;2024-02-23T07:18:00;97585.0;;;3.57;96.2
79118;BME280;68523;51.336;-0.846;2024-02-23T07:21:00;97585.0;;;3.59;96.2
79118;BME280;68523;51.336;-0.846;2024-02-23T07:24:00;97585.0;;;3.56;96.1
79118;BME280;68523;51.336;-0.846;2024-02-23T07:27:00;97585.0;;;3.52;96.3
79118;BME280;68523;51.336;-0.846;2024-02-23T07:30:00;97595.0;;;3.51;96.4
79118;BME280;68523;51.336;-0.846;2024-02-23T07:33:00;97595.0;;;3.49;96.5
79118;BME280;68523;51.336;-0.846;2024-02-23T07:36:00;97595.0;;;3.47;96.6
79118;BME280;68523;51.336;-0.846;2024-02-23T07:39:00;97595.0;;;3.53;96.4
79118;BME280;68523;51.336;-0.846;2024-02-23T07:42:00;97595.0;;;3.51;96.4
79118;BME280;68523;51.336;-0.846;2024-02-23T07:45:00;97595.0;;;3.51;96.4
79118;BME280;68523;51.336;-0.846;2024-02-23T07:48:00;97605.0;;;3.52;96.3
79118;BME280;68523;51.336;-0.846;2024-02-23T07:51:00;97615.0;;;3.54;96.3
79118;BME280;68523;51.336;-0.846;2024-02-23T07:54:00;97615.0;;;3.54;96.3
79118;BME280;68523;51.336;-0.846;2024-02-23T07:57:00;97615.0;;;3.55;96.3
79118;BME280;68523;51.336;-0.846;2024-02-23T08:00:00;97615.0;;;3.58;96.2
79118;BME280;68523;51.336;-0.846;2024-02-23T08:03:00;97615.0;;;3.67;95.8
79118;BME280;68523;51.336;-0.846;2024-02-23T08:06:00;97615.0;;;3.69;95.7
79118;BME280;68523;51.336;-0.846;2024-02-23T08:09:00;97615.0;;;3.69;95.7
79118;BME280;68523;51.336;-0.846;2024-02-23T08:12:00;97615.0;;;3.85;95.1
79118;BME280;68523;51.336;-0.846;2024-02-23T08:15:00;97625.0;;;3.93;94.8
79118;BME280;68523;51.336;-0.846;2024-02-23T08:18:00;97625.0;;;3.93;95.1
79118;BME280;68523;51.336;-0.846;2024-02-23T08:21:00;97625.0;;;4.02;94.8
79118;BME280;68523;51.336;-0.846;2024-02-23T08:24:00;97625.0;;;4.07;94.6
79118;BME280;68523;51.336;-0.846;2024-02-23T08:27:00;97635.0;;;4.16;94.5
79118;BME280;68523;51.336;-0.846;2024-02-23T08:30:00;97635.0;;;4.35;94.1
79118;BME280;68523;51.336;-0.846;2024-02-23T08:33:00;97635.0;;;4.67;92.9
79118;BME280;68523;51.336;-0.846;2024-02-23T08:36:00;97645.0;;;5.03;91.4
79118;BME280;68523;51.336;-0.846;2024-02-23T08:39:00;97645.0;;;5.01;91.5
79118;BME280;68523;51.336;-0.846;2024-02-23T08:42:00;97645.0;;;5.31;90.5
79118;BME280;68523;51.336;-0.846;2024-02-23T08:45:00;97655.0;;;5.38;90.5
79118;BME280;68523;51.336;-0.846;2024-02-23T08:48:00;97655.0;;;5.53;90.3
79118;BME280;68523;51.336;-0.846;2024-02-23T08:51:00;97665.0;;;5.59;90.0
79118;BME280;68523;51.336;-0.846;2024-02-23T08:54:00;97665.0;;;6.21;87.9
79118;BME280;68523;51.336;-0.846;2024-02-23T08:57:00;97665.0;;;5.96;88.8
79118;BME280;68523;51.336;-0.846;2024-02-23T09:00:00;97675.0;;;5.97;88.4
79118;BME280;68523;51.336;-0.846;2024-02-23T09:03:00;97675.0;;;6.62;86.0
79118;BME280;68523;51.336;-0.846;2024-02-23T09:06:00;97675.0;;;7.03;84.8
79118;BME280;68523;51.336;-0.846;2024-02-23T09:09:00;97675.0;;;7.00;84.7
79118;BME280;68523;51.336;-0.846;2024-02-23T09:12:00;97675.0;;;7.47;83.5
79118;BME280;68523;51.336;-0.846;2024-02-23T09:15:01;97675.0;;;6.93;84.7
79118;BME280;68523;51.336;-0.846;2024-02-23T09:18:00;97675.0;;;6.73;85.9
79118;BME280;68523;51.336;-0.846;2024-02-23T09:21:00;97675.0;;;6.47;86.2
79118;BME280;68523;51.336;-0.846;2024-02-23T09:24:00;97685.0;;;6.76;86.2
79118;BME280;68523;51.336;-0.846;2024-02-23T09:27:00;97685.0;;;7.12;84.6
79118;BME280;68523;51.336;-0.846;2024-02-23T09:30:00;97685.0;;;7.11;83.8
79118;BME280;68523;51.336;-0.846;2024-02-23T09:33:00;97685.0;;;6.92;85.0
79118;BME280;68523;51.336;-0.846;2024-02-23T09:36:00;97695.0;;;6.99;85.0
79118;BME280;68523;51.336;-0.846;2024-02-23T09:39:00;97685.0;;;7.02;85.6
79118;BME280;68523;51.336;-0.846;2024-02-23T09:42:01;97695.0;;;7.23;84.9
79118;BME280;68523;51.336;-0.846;2024-02-23T09:45:00;97695.0;;;7.22;84.8
79118;BME280;68523;51.336;-0.846;2024-02-23T09:48:00;97695.0;;;7.47;84.4
79118;BME280;68523;51.336;-0.846;2024-02-23T09:51:01;97695.0;;;7.03;85.0
79118;BME280;68523;51.336;-0.846;2024-02-23T09:54:01;97705.0;;;7.39;84.9
79118;BME280;68523;51.336;-0.846;2024-02-23T09:57:01;97705.0;;;7.37;83.8
79118;BME280;68523;51.336;-0.846;2024-02-23T10:00:01;97705.0;;;7.29;84.5
79118;BME280;68523;51.336;-0.846;2024-02-23T10:03:00;97705.0;;;7.28;84.5
79118;BME280;68523;51.336;-0.846;2024-02-23T10:06:00;97705.0;;;7.18;85.2
79118;BME280;68523;51.336;-0.846;2024-02-23T10:09:00;97705.0;;;7.10;84.1
79118;BME280;68523;51.336;-0.846;2024-02-23T10:12:01;97705.0;;;7.49;83.7
79118;BME280;68523;51.336;-0.846;2024-02-23T10:15:00;97715.0;;;7.67;83.5
79118;BME280;68523;51.336;-0.846;2024-02-23T10:18:00;97705.0;;;7.27;84.0
79118;BME280;68523;51.336;-0.846;2024-02-23T10:21:00;97705.0;;;7.43;83.5
79118;BME280;68523;51.336;-0.846;2024-02-23T10:24:00;97705.0;;;7.63;83.2
79118;BME280;68523;51.336;-0.846;2024-02-23T10:27:00;97705.0;;;7.81;82.7
79118;BME280;68523;51.336;-0.846;2024-02-23T10:30:00;97695.0;;;8.06;82.1
79118;BME280;68523;51.336;-0.846;2024-02-23T10:33:00;97695.0;;;7.71;81.1
79118;BME280;68523;51.336;-0.846;2024-02-23T10:36:00;97695.0;;;8.03;80.2
79118;BME280;68523;51.336;-0.846;2024-02-23T10:39:02;97695.0;;;8.34;80.7
79118;BME280;68523;51.336;-0.846;2024-02-23T10:42:03;97705.0;;;8.39;80.0
79118;BME280;68523;51.336;-0.846;2024-02-23T10:45:01;97715.0;;;8.28;80.3
79118;BME280;68523;51.336;-0.846;2024-02-23T10:48:00;97715.0;;;8.21;79.8
79118;BME280;68523;51.336;-0.846;2024-02-23T10:51:01;97715.0;;;8.16;79.3
79118;BME280;68523;51.336;-0.846;2024-02-23T10:54:00;97725.0;;;8.19;79.8
79118;BME280;68523;51.336;-0.846;2024-02-23T10:57:01;97725.0;;;8.25;80.5
79118;BME280;68523;51.336;-0.846;2024-02-23T11:00:00;97715.0;;;8.19;80.8
79118;BME280;68523;51.336;-0.846;2024-02-23T11:03:01;97725.0;;;7.99;80.5
79118;BME280;68523;51.336;-0.846;2024-02-23T11:06:00;97725.0;;;7.92;80.8
79118;BME280;68523;51.336;-0.846;2024-02-23T11:09:08;97725.0;;;7.97;80.4
79118;BME280;68523;51.336;-0.846;2024-02-23T11:12:04;97725.0;;;8.23;79.8
79118;BME280;68523;51.336;-0.846;2024-02-23T11:15:01;97735.0;;;8.00;80.7
79118;BME280;68523;51.336;-0.846;2024-02-23T11:18:00;97745.0;;;8.03;79.9
79118;BME280;68523;51.336;-0.846;2024-02-23T11:21:02;97735.0;;;8.33;79.9
79118;BME280;68523;51.336;-0.846;2024-02-23T11:24:03;97735.0;;;8.93;78.0
79118;BME280;68523;51.336;-0.846;2024-02-23T11:27:01;97725.0;;;8.95;75.2
79118;BME280;68523;51.336;-0.846;2024-02-23T11:30:03;97725.0;;;9.16;76.0
79118;BME280;68523;51.336;-0.846;2024-02-23T11:33:00;97735.0;;;9.53;75.3
79118;BME280;68523;51.336;-0.846;2024-02-23T11:36:09;97735.0;;;8.90;77.0
79118;BME280;68523;51.336;-0.846;2024-02-23T11:39:01;97735.0;;;8.55;78.0
79118;BME280;68523;51.336;-0.846;2024-02-23T11:42:00;97745.0;;;8.07;78.9
79118;BME280;68523;51.336;-0.846;2024-02-23T11:45:00;97745.0;;;7.90;79.3
79118;BME280;68523;51.336;-0.846;2024-02-23T11:48:00;97735.0;;;8.40;77.2
79118;BME280;68523;51.336;-0.846;2024-02-23T11:51:00;97735.0;;;8.00;79.0
79118;BME280;68523;51.336;-0.846;2024-02-23T11:54:00;97735.0;;;7.63;80.1
79118;BME280;68523;51.336;-0.846;2024-02-23T11:57:00;97725.0;;;7.61;80.8
79118;BME280;68523;51.336;-0.846;2024-02-23T12:00:01;97725.0;;;7.46;81.2
79118;BME280;68523;51.336;-0.846;2024-02-23T12:03:00;97725.0;;;7.73;80.5
79118;BME280;68523;51.336;-0.846;2024-02-23T12:06:00;97725.0;;;7.95;79.8
79118;BME280;68523;51.336;-0.846;2024-02-23T12:09:01;97715.0;;;8.39;78.5
79118;BME280;68523;51.336;-0.846;2024-02-23T12:12:00;97715.0;;;8.17;78.7
79118;BME280;68523;51.336;-0.846;2024-02-23T12:15:00;97715.0;;;8.40;77.9
79118;BME280;68523;51.336;-0.846;2024-02-23T12:18:03;97705.0;;;8.12;78.7
79118;BME280;68523;51.336;-0.846;2024-02-23T12:21:01;97705.0;;;7.85;79.2
79118;BME280;68523;51.336;-0.846;2024-02-23T12:24:04;97705.0;;;8.14;78.8
79118;BME280;68523;51.336;-0.846;2024-02-23T12:27:00;97705.0;;;9.00;75.8
79118;BME280;68523;51.336;-0.846;2024-02-23T12:30:00;97715.0;;;9.13;75.2
79118;BME280;68523;51.336;-0.846;2024-02-23T12:33:04;97705.0;;;8.14;78.2
79118;BME280;68523;51.336;-0.846;2024-02-23T12:36:01;97705.0;;;8.19;78.6
79118;BME280;68523;51.336;-0.846;2024-02-23T12:39:00;97695.0;;;8.22;77.5
79118;BME280;68523;51.336;-0.846;2024-02-23T12:42:00;97695.0;;;8.21;78.2
79118;BME280;68523;51.336;-0.846;2024-02-23T12:45:00;97695.0;;;8.88;76.8
79118;BME280;68523;51.336;-0.846;2024-02-23T12:48:00;97685.0;;;9.00;73.3
79118;BME280;68523;51.336;-0.846;2024-02-23T12:51:00;97685.0;;;8.24;74.7
79118;BME280;68523;51.336;-0.846;2024-02-23T12:54:00;97685.0;;;8.31;76.4
79118;BME280;68523;51.336;-0.846;2024-02-23T12:57:00;97685.0;;;8.28;76.5
79118;BME280;68523;51.336;-0.846;2024-02-23T13:00:01;97685.0;;;8.34;76.2
79118;BME280;68523;51.336;-0.846;2024-02-23T13:03:00;97685.0;;;8.58;75.0
79118;BME280;68523;51.336;-0.846;2024-02-23T13:06:00;97685.0;;;9.03;73.0
79118;BME280;68523;51.336;-0.846;2024-02-23T13:09:00;97675.0;;;8.58;73.9
79118;BME280;68523;51.336;-0.846;2024-02-23T13:12:00;97685.0;;;8.48;74.2
79118;BME280;68523;51.336;-0.846;2024-02-23T13:15:00;97685.0;;;8.22;74.5
79118;BME280;68523;51.336;-0.846;2024-02-23T13:18:00;97675.0;;;8.39;73.9
79118;BME280;68523;51.336;-0.846;2024-02-23T13:21:00;97675.0;;;8.90;72.8
79118;BME280;68523;51.336;-0.846;2024-02-23T13:24:00;97675.0;;;8.68;73.0
79118;BME280;68523;51.336;-0.846;2024-02-23T13:27:00;97675.0;;;8.34;74.4
79118;BME280;68523;51.336;-0.846;2024-02-23T13:30:02;97675.0;;;8.42;74.2
79118;BME280;68523;51.336;-0.846;2024-02-23T13:33:00;97675.0;;;8.15;75.9
79118;BME280;68523;51.336;-0.846;2024-02-23T13:36:00;97665.0;;;8.23;76.6
79118;BME280;68523;51.336;-0.846;2024-02-23T13:39:00;97665.0;;;8.60;74.2
79118;BME280;68523;51.336;-0.846;2024-02-23T13:42:00;97665.0;;;8.88;74.2
79118;BME280;68523;51.336;-0.846;2024-02-23T13:45:00;97665.0;;;8.68;73.5
79118;BME280;68523;51.336;-0.846;2024-02-23T13:48:02;97665.0;;;8.49;74.3
79118;BME280;68523;51.336;-0.846;2024-02-23T13:51:00;97665.0;;;8.58;74.8
79118;BME280;68523;51.336;-0.846;2024-02-23T13:54:01;97665.0;;;8.50;74.2
79118;BME280;68523;51.336;-0.846;2024-02-23T13:57:00;97665.0;;;8.57;76.6
79118;BME280;68523;51.336;-0.846;2024-02-23T14:00:00;97655.0;;;8.32;76.4
79118;BME280;68523;51.336;-0.846;2024-02-23T14:03:00;97655.0;;;8.41;76.8
79118;BME280;68523;51.336;-0.846;2024-02-23T14:06:00;97655.0;;;8.29;76.9
79118;BME280;68523;51.336;-0.846;2024-02-23T14:09:00;97655.0;;;8.35;77.5
79118;BME280;68523;51.336;-0.846;2024-02-23T14:12:00;97655.0;;;8.22;76.6
79118;BME280;68523;51.336;-0.846;2024-02-23T14:15:00;97655.0;;;8.37;77.7
79118;BME280;68523;51.336;-0.846;2024-02-23T14:18:00;97655.0;;;8.26;75.2
79118;BME280;68523;51.336;-0.846;2024-02-23T14:21:00;97655.0;;;8.64;75.7
79118;BME280;68523;51.336;-0.846;2024-02-23T14:24:01;97645.0;;;8.68;73.7
79118;BME280;68523;51.336;-0.846;2024-02-23T14:27:00;97655.0;;;8.33;73.7
79118;BME280;68523;51.336;-0.846;2024-02-23T14:30:00;97655.0;;;8.11;74.6
79118;BME280;68523;51.336;-0.846;2024-02-23T14:33:00;97655.0;;;8.36;75.8
79118;BME280;68523;51.336;-0.846;2024-02-23T14:36:00;97655.0;;;8.37;75.1
79118;BME280;68523;51.336;-0.846;2024-02-23T14:39:00;97665.0;;;8.40;76.7
79118;BME280;68523;51.336;-0.846;2024-02-23T14:42:00;97665.0;;;8.20;75.3
79118;BME280;68523;51.336;-0.846;2024-02-23T14:45:00;97665.0;;;7.97;75.1
79118;BME280;68523;51.336;-0.846;2024-02-23T14:48:00;97665.0;;;8.04;75.1
79118;BME280;68523;51.336;-0.846;2024-02-23T14:51:00;97665.0;;;8.36;74.3
79118;BME280;68523;51.336;-0.846;2024-02-23T14:54:00;97655.0;;;8.52;74.3
79118;BME280;68523;51.336;-0.846;2024-02-23T14:57:00;97665.0;;;8.07;74.7
79118;BME280;68523;51.336;-0.846;2024-02-23T15:00:01;97665.0;;;7.76;76.2
79118;BME280;68523;51.336;-0.846;2024-02-23T15:03:00;97665.0;;;7.34;77.2
79118;BME280;68523;51.336;-0.846;2024-02-23T15:06:00;97665.0;;;7.22;78.6
79118;BME280;68523;51.336;-0.846;2024-02-23T15:09:00;97675.0;;;7.08;79.9
79118;BME280;68523;51.336;-0.846;2024-02-23T15:12:00;97685.0;;;6.89;81.7
79118;BME280;68523;51.336;-0.846;2024-02-23T15:15:00;97695.0;;;6.48;84.2
79118;BME280;68523;51.336;-0.846;2024-02-23T15:18:00;97705.0;;;6.13;85.9
79118;BME280;68523;51.336;-0.846;2024-02-23T15:21:00;97715.0;;;5.77;87.5
79118;BME280;68523;51.336;-0.846;2024-02-23T15:24:00;97715.0;;;5.58;88.8
79118;BME280;68523;51.336;-0.846;2024-02-23T15:27:00;97725.0;;;5.53;89.9
79118;BME280;68523;51.336;-0.846;2024-02-23T15:30:00;97725.0;;;5.20;92.5
79118;BME280;68523;51.336;-0.846;2024-02-23T15:33:00;97725.0;;;5.03;94.2
79118;BME280;68523;51.336;-0.846;2024-02-23T15:36:00;97725.0;;;5.02;94.6
79118;BME280;68523;51.336;-0.846;2024-02-23T15:39:00;97725.0;;;4.94;94.9
79118;BME280;68523;51.336;-0.846;2024-02-23T15:42:00;97725.0;;;4.97;95.9
79118;BME280;68523;51.336;-0.846;2024-02-23T15:45:00;97725.0;;;4.87;95.3
79118;BME280;68523;51.336;-0.846;2024-02-23T15:48:00;97715.0;;;4.85;95.4
79118;BME280;68523;51.336;-0.846;2024-02-23T15:51:00;97715.0;;;4.91;95.7
79118;BME280;68523;51.336;-0.846;2024-02-23T15:54:00;97715.0;;;5.00;95.9
79118;BME280;68523;51.336;-0.846;2024-02-23T15:57:00;97715.0;;;5.05;96.0
79118;BME280;68523;51.336;-0.846;2024-02-23T16:00:00;97715.0;;;5.03;95.8
79118;BME280;68523;51.336;-0.846;2024-02-23T16:03:00;97725.0;;;5.12;96.5
79118;BME280;68523;51.336;-0.846;2024-02-23T16:06:00;97725.0;;;5.14;96.3
79118;BME280;68523;51.336;-0.846;2024-02-23T16:09:00;97735.0;;;5.09;96.0
79118;BME280;68523;51.336;-0.846;2024-02-23T16:12:00;97735.0;;;4.92;96.5
79118;BME280;68523;51.336;-0.846;2024-02-23T16:15:00;97745.0;;;4.94;96.7
79118;BME280;68523;51.336;-0.846;2024-02-23T16:18:00;97745.0;;;5.00;96.9